sensor_id;sensor_type;location;lat;lon;timestamp;temperature;humidity
21481;DHT22;10902;48.158;8.634;2023-11-19T00:02:17;5.60;99.90
21481;DHT22;10902;48.158;8.634;2023-11-19T00:05:04;5.60;99.90
21481;DHT22;10902;48.158;8.634;2023-11-19T00:07:50;5.70;99.90
21481;DHT22;10902;48.158;8.634;2023-11-19T00:10:35;5.70;99.90
21481;DHT22;10902;48.158;8.634;2023-11-19T00:13:21;5.70;99.90
21481;DHT22;10902;48.158;8.634;2023-11-19T00:16:08;5.70;99.90
21481;DHT22;10902;48.158;8.634;2023-11-19T00:18:55;5.80;99.90
21481;DHT22;10902;48.158;8.634;2023-11-19T00:21:40;5.80;99.90
21481;DHT22;10902;48.158;8.634;2023-11-19T00:24:26;5.80;99.90
21481;DHT22;10902;48.158;8.634;2023-11-19T00:27:12;5.80;99.90
21481;DHT22;10902;48.158;8.634;2023-11-19T00:29:57;5.80;99.90
21481;DHT22;10902;48.158;8.634;2023-11-19T00:32:43;5.80;99.90
21481;DHT22;10902;48.158;8.634;2023-11-19T00:35:30;5.70;99.90
21481;DHT22;10902;48.158;8.634;2023-11-19T00:38:29;5.80;99.90
21481;DHT22;10902;48.158;8.634;2023-11-19T00:41:15;5.80;99.90
21481;DHT22;10902;48.158;8.634;2023-11-19T00:44:02;5.80;99.90
21481;DHT22;10902;48.158;8.634;2023-11-19T00:46:47;5.80;99.90
21481;DHT22;10902;48.158;8.634;2023-11-19T00:49:33;5.80;99.90
21481;DHT22;10902;48.158;8.634;2023-11-19T00:52:18;5.90;99.90
21481;DHT22;10902;48.158;8.634;2023-11-19T00:55:05;5.90;99.90
21481;DHT22;10902;48.158;8.634;2023-11-19T00:57:51;5.90;99.90
21481;DHT22;10902;48.158;8.634;2023-11-19T01:00:36;6.00;99.90
21481;DHT22;10902;48.158;8.634;2023-11-19T01:03:22;6.00;99.90
21481;DHT22;10902;48.158;8.634;2023-11-19T01:06:07;6.00;99.90
21481;DHT22;10902;48.158;8.634;2023-11-19T01:08:53;6.00;99.90
21481;DHT22;10902;48.158;8.634;2023-11-19T01:11:40;6.10;99.90
21481;DHT22;10902;48.158;8.634;2023-11-19T01:14:26;6.10;99.90
21481;DHT22;10902;48.158;8.634;2023-11-19T01:17:11;6.10;99.90
21481;DHT22;10902;48.158;8.634;2023-11-19T01:19:57;6.10;99.90
21481;DHT22;10902;48.158;8.634;2023-11-19T01:22:43;6.00;99.90
21481;DHT22;10902;48.158;8.634;2023-11-19T01:25:29;6.00;99.90
21481;DHT22;10902;48.158;8.634;2023-11-19T01:28:14;6.10;99.90
21481;DHT22;10902;48.158;8.634;2023-11-19T01:31:00;6.10;99.90
21481;DHT22;10902;48.158;8.634;2023-11-19T01:34:03;6.20;99.90
21481;DHT22;10902;48.158;8.634;2023-11-19T01:36:49;6.20;99.90
21481;DHT22;10902;48.158;8.634;2023-11-19T01:39:34;6.20;99.90
21481;DHT22;10902;48.158;8.634;2023-11-19T01:42:20;6.20;99.90
21481;DHT22;10902;48.158;8.634;2023-11-19T01:45:06;6.20;99.90
21481;DHT22;10902;48.158;8.634;2023-11-19T01:47:53;6.20;99.90
21481;DHT22;10902;48.158;8.634;2023-11-19T01:50:39;6.30;99.90
21481;DHT22;10902;48.158;8.634;2023-11-19T01:53:25;6.20;99.90
21481;DHT22;10902;48.158;8.634;2023-11-19T01:56:13;6.30;99.90
21481;DHT22;10902;48.158;8.634;2023-11-19T01:59:00;6.30;99.90
21481;DHT22;10902;48.158;8.634;2023-11-19T02:01:46;6.30;99.90
21481;DHT22;10902;48.158;8.634;2023-11-19T02:04:32;6.30;99.90
21481;DHT22;10902;48.158;8.634;2023-11-19T02:07:18;6.30;99.90
21481;DHT22;10902;48.158;8.634;2023-11-19T02:10:05;6.30;99.90
21481;DHT22;10902;48.158;8.634;2023-11-19T02:12:50;6.30;99.90
21481;DHT22;10902;48.158;8.634;2023-11-19T02:15:36;6.30;99.90
21481;DHT22;10902;48.158;8.634;2023-11-19T02:18:26;6.30;99.90
21481;DHT22;10902;48.158;8.634;2023-11-19T02:21:15;6.30;99.90
21481;DHT22;10902;48.158;8.634;2023-11-19T02:24:05;6.30;99.90
21481;DHT22;10902;48.158;8.634;2023-11-19T02:27:00;6.40;99.90
21481;DHT22;10902;48.158;8.634;2023-11-19T02:29:47;6.40;99.90
21481;DHT22;10902;48.158;8.634;2023-11-19T02:32:33;6.40;99.90
21481;DHT22;10902;48.158;8.634;2023-11-19T02:35:18;6.50;99.90
21481;DHT22;10902;48.158;8.634;2023-11-19T02:38:04;6.50;99.90
21481;DHT22;10902;48.158;8.634;2023-11-19T02:40:50;6.50;99.90
21481;DHT22;10902;48.158;8.634;2023-11-19T02:43:37;6.50;99.90
21481;DHT22;10902;48.158;8.634;2023-11-19T02:46:22;6.50;99.90
21481;DHT22;10902;48.158;8.634;2023-11-19T02:49:14;6.60;99.90
21481;DHT22;10902;48.158;8.634;2023-11-19T02:51:59;6.60;99.90
21481;DHT22;10902;48.158;8.634;2023-11-19T02:54:45;6.70;99.90
21481;DHT22;10902;48.158;8.634;2023-11-19T02:57:31;6.80;99.90
21481;DHT22;10902;48.158;8.634;2023-11-19T03:00:18;7.00;99.90
21481;DHT22;10902;48.158;8.634;2023-11-19T03:03:04;7.20;99.90
21481;DHT22;10902;48.158;8.634;2023-11-19T03:06:05;7.30;99.90
21481;DHT22;10902;48.158;8.634;2023-11-19T03:08:51;7.30;99.90
21481;DHT22;10902;48.158;8.634;2023-11-19T03:11:48;7.30;99.90
21481;DHT22;10902;48.158;8.634;2023-11-19T03:14:35;7.10;99.90
21481;DHT22;10902;48.158;8.634;2023-11-19T03:17:20;7.20;99.90
21481;DHT22;10902;48.158;8.634;2023-11-19T03:20:07;7.20;99.90
21481;DHT22;10902;48.158;8.634;2023-11-19T03:22:56;7.20;99.90
21481;DHT22;10902;48.158;8.634;2023-11-19T03:25:43;7.20;99.90
21481;DHT22;10902;48.158;8.634;2023-11-19T03:28:29;7.20;99.90
21481;DHT22;10902;48.158;8.634;2023-11-19T03:31:15;7.30;99.90
21481;DHT22;10902;48.158;8.634;2023-11-19T03:34:00;7.40;99.90
21481;DHT22;10902;48.158;8.634;2023-11-19T03:36:46;7.50;99.90
21481;DHT22;10902;48.158;8.634;2023-11-19T03:39:31;7.60;99.90
21481;DHT22;10902;48.158;8.634;2023-11-19T03:42:19;7.80;99.90
21481;DHT22;10902;48.158;8.634;2023-11-19T03:45:07;7.80;99.90
21481;DHT22;10902;48.158;8.634;2023-11-19T03:48:18;7.80;99.90
21481;DHT22;10902;48.158;8.634;2023-11-19T03:51:33;8.00;99.90
21481;DHT22;10902;48.158;8.634;2023-11-19T03:54:20;8.20;99.90
21481;DHT22;10902;48.158;8.634;2023-11-19T03:57:08;8.20;99.90
21481;DHT22;10902;48.158;8.634;2023-11-19T03:59:57;8.40;99.90
21481;DHT22;10902;48.158;8.634;2023-11-19T04:02:44;8.50;99.90
21481;DHT22;10902;48.158;8.634;2023-11-19T04:05:29;8.60;99.90
21481;DHT22;10902;48.158;8.634;2023-11-19T04:08:20;8.70;99.90
21481;DHT22;10902;48.158;8.634;2023-11-19T04:11:06;8.80;99.90
21481;DHT22;10902;48.158;8.634;2023-11-19T04:13:51;8.90;99.90
21481;DHT22;10902;48.158;8.634;2023-11-19T04:16:37;8.90;99.90
21481;DHT22;10902;48.158;8.634;2023-11-19T04:19:23;8.90;99.90
21481;DHT22;10902;48.158;8.634;2023-11-19T04:22:09;8.90;99.90
21481;DHT22;10902;48.158;8.634;2023-11-19T04:24:56;8.90;99.90
21481;DHT22;10902;48.158;8.634;2023-11-19T04:27:43;9.00;99.90
21481;DHT22;10902;48.158;8.634;2023-11-19T04:30:29;9.00;99.90
21481;DHT22;10902;48.158;8.634;2023-11-19T04:33:17;9.10;99.90
21481;DHT22;10902;48.158;8.634;2023-11-19T04:36:02;9.10;99.90
21481;DHT22;10902;48.158;8.634;2023-11-19T04:38:48;9.10;99.90
21481;DHT22;10902;48.158;8.634;2023-11-19T04:41:34;9.10;99.90
21481;DHT22;10902;48.158;8.634;2023-11-19T04:44:20;9.10;99.90
21481;DHT22;10902;48.158;8.634;2023-11-19T04:47:06;9.20;99.90
21481;DHT22;10902;48.158;8.634;2023-11-19T04:49:51;9.20;99.90
21481;DHT22;10902;48.158;8.634;2023-11-19T04:52:40;9.20;99.90
21481;DHT22;10902;48.158;8.634;2023-11-19T04:55:25;9.20;99.90
21481;DHT22;10902;48.158;8.634;2023-11-19T04:58:11;9.30;99.90
21481;DHT22;10902;48.158;8.634;2023-11-19T05:00:56;9.30;99.90
21481;DHT22;10902;48.158;8.634;2023-11-19T05:03:42;9.30;99.90
21481;DHT22;10902;48.158;8.634;2023-11-19T05:06:31;9.30;99.90
21481;DHT22;10902;48.158;8.634;2023-11-19T05:09:17;9.40;99.90
21481;DHT22;10902;48.158;8.634;2023-11-19T05:12:03;9.40;99.90
21481;DHT22;10902;48.158;8.634;2023-11-19T05:14:49;9.40;99.90
21481;DHT22;10902;48.158;8.634;2023-11-19T05:17:36;9.50;99.90
21481;DHT22;10902;48.158;8.634;2023-11-19T05:20:22;9.50;99.90
21481;DHT22;10902;48.158;8.634;2023-11-19T05:23:08;9.50;99.90
21481;DHT22;10902;48.158;8.634;2023-11-19T05:25:53;9.60;99.90
21481;DHT22;10902;48.158;8.634;2023-11-19T05:28:39;9.60;99.90
21481;DHT22;10902;48.158;8.634;2023-11-19T05:31:36;9.60;99.90
21481;DHT22;10902;48.158;8.634;2023-11-19T05:34:22;9.60;99.90
21481;DHT22;10902;48.158;8.634;2023-11-19T05:37:07;9.70;99.90
21481;DHT22;10902;48.158;8.634;2023-11-19T05:39:55;9.60;99.90
21481;DHT22;10902;48.158;8.634;2023-11-19T05:42:41;9.60;99.90
21481;DHT22;10902;48.158;8.634;2023-11-19T05:45:26;9.60;99.90
21481;DHT22;10902;48.158;8.634;2023-11-19T05:48:12;9.70;99.90
21481;DHT22;10902;48.158;8.634;2023-11-19T05:50:58;9.70;99.90
21481;DHT22;10902;48.158;8.634;2023-11-19T05:53:44;9.70;99.90
21481;DHT22;10902;48.158;8.634;2023-11-19T05:56:33;9.80;99.90
21481;DHT22;10902;48.158;8.634;2023-11-19T05:59:18;9.70;99.90
21481;DHT22;10902;48.158;8.634;2023-11-19T06:02:04;9.80;99.90
21481;DHT22;10902;48.158;8.634;2023-11-19T06:04:49;9.70;99.90
21481;DHT22;10902;48.158;8.634;2023-11-19T06:07:35;9.80;99.90
21481;DHT22;10902;48.158;8.634;2023-11-19T06:10:22;9.80;99.90
21481;DHT22;10902;48.158;8.634;2023-11-19T06:13:09;9.80;99.90
21481;DHT22;10902;48.158;8.634;2023-11-19T06:16:00;9.80;99.90
21481;DHT22;10902;48.158;8.634;2023-11-19T06:18:45;9.90;99.90
21481;DHT22;10902;48.158;8.634;2023-11-19T06:21:31;9.90;99.90
21481;DHT22;10902;48.158;8.634;2023-11-19T06:24:17;9.90;99.90
21481;DHT22;10902;48.158;8.634;2023-11-19T06:27:02;9.90;99.90
21481;DHT22;10902;48.158;8.634;2023-11-19T06:29:48;9.80;99.90
21481;DHT22;10902;48.158;8.634;2023-11-19T06:32:42;9.90;99.90
21481;DHT22;10902;48.158;8.634;2023-11-19T06:35:27;10.00;99.90
21481;DHT22;10902;48.158;8.634;2023-11-19T06:38:21;9.90;99.90
21481;DHT22;10902;48.158;8.634;2023-11-19T06:41:09;9.90;99.90
21481;DHT22;10902;48.158;8.634;2023-11-19T06:43:55;9.90;99.90
21481;DHT22;10902;48.158;8.634;2023-11-19T06:46:40;9.90;99.90
21481;DHT22;10902;48.158;8.634;2023-11-19T06:49:26;9.90;99.90
21481;DHT22;10902;48.158;8.634;2023-11-19T06:52:11;10.00;99.90
21481;DHT22;10902;48.158;8.634;2023-11-19T06:54:57;10.00;99.90
21481;DHT22;10902;48.158;8.634;2023-11-19T06:57:43;10.00;99.90
21481;DHT22;10902;48.158;8.634;2023-11-19T07:00:28;10.00;99.90
21481;DHT22;10902;48.158;8.634;2023-11-19T07:03:14;10.00;99.90
21481;DHT22;10902;48.158;8.634;2023-11-19T07:06:01;10.10;99.90
21481;DHT22;10902;48.158;8.634;2023-11-19T07:08:46;10.10;99.90
21481;DHT22;10902;48.158;8.634;2023-11-19T07:11:32;10.10;99.90
21481;DHT22;10902;48.158;8.634;2023-11-19T07:14:18;10.10;99.90
21481;DHT22;10902;48.158;8.634;2023-11-19T07:17:04;10.10;99.90
21481;DHT22;10902;48.158;8.634;2023-11-19T07:19:50;10.20;99.90
21481;DHT22;10902;48.158;8.634;2023-11-19T07:22:51;10.20;99.90
21481;DHT22;10902;48.158;8.634;2023-11-19T07:25:36;10.10;99.90
21481;DHT22;10902;48.158;8.634;2023-11-19T07:28:22;10.20;99.90
21481;DHT22;10902;48.158;8.634;2023-11-19T07:31:08;10.20;99.90
21481;DHT22;10902;48.158;8.634;2023-11-19T07:33:53;10.30;99.90
21481;DHT22;10902;48.158;8.634;2023-11-19T07:36:39;10.30;99.90
21481;DHT22;10902;48.158;8.634;2023-11-19T07:39:37;10.40;99.90
21481;DHT22;10902;48.158;8.634;2023-11-19T07:42:26;10.40;99.90
21481;DHT22;10902;48.158;8.634;2023-11-19T07:45:11;10.40;99.90
21481;DHT22;10902;48.158;8.634;2023-11-19T07:47:57;10.40;99.90
21481;DHT22;10902;48.158;8.634;2023-11-19T07:50:43;10.40;99.90
21481;DHT22;10902;48.158;8.634;2023-11-19T07:53:28;10.50;99.90
21481;DHT22;10902;48.158;8.634;2023-11-19T07:56:19;10.50;99.90
21481;DHT22;10902;48.158;8.634;2023-11-19T07:59:05;10.60;99.90
21481;DHT22;10902;48.158;8.634;2023-11-19T08:01:52;10.50;99.90
21481;DHT22;10902;48.158;8.634;2023-11-19T08:04:37;10.50;99.90
21481;DHT22;10902;48.158;8.634;2023-11-19T08:07:25;10.60;99.90
21481;DHT22;10902;48.158;8.634;2023-11-19T08:10:10;10.70;99.90
21481;DHT22;10902;48.158;8.634;2023-11-19T08:12:56;10.80;99.90
21481;DHT22;10902;48.158;8.634;2023-11-19T08:15:43;10.80;99.90
21481;DHT22;10902;48.158;8.634;2023-11-19T08:18:28;10.90;99.90
21481;DHT22;10902;48.158;8.634;2023-11-19T08:21:14;10.90;99.90
21481;DHT22;10902;48.158;8.634;2023-11-19T08:24:00;11.00;99.90
21481;DHT22;10902;48.158;8.634;2023-11-19T08:26:45;10.90;99.90
21481;DHT22;10902;48.158;8.634;2023-11-19T08:29:31;10.90;99.90
21481;DHT22;10902;48.158;8.634;2023-11-19T08:32:17;11.00;99.90
21481;DHT22;10902;48.158;8.634;2023-11-19T08:35:11;11.00;99.90
21481;DHT22;10902;48.158;8.634;2023-11-19T08:37:56;11.00;99.90
21481;DHT22;10902;48.158;8.634;2023-11-19T08:40:42;11.10;99.90
21481;DHT22;10902;48.158;8.634;2023-11-19T08:43:28;11.10;99.90
21481;DHT22;10902;48.158;8.634;2023-11-19T08:46:13;11.10;99.90
21481;DHT22;10902;48.158;8.634;2023-11-19T08:48:59;11.00;99.90
21481;DHT22;10902;48.158;8.634;2023-11-19T08:51:45;11.10;99.90
21481;DHT22;10902;48.158;8.634;2023-11-19T08:54:31;11.10;99.90
21481;DHT22;10902;48.158;8.634;2023-11-19T08:57:18;11.20;99.90
21481;DHT22;10902;48.158;8.634;2023-11-19T09:00:05;11.20;99.90
21481;DHT22;10902;48.158;8.634;2023-11-19T09:02:53;11.10;99.90
21481;DHT22;10902;48.158;8.634;2023-11-19T09:05:38;11.20;99.90
21481;DHT22;10902;48.158;8.634;2023-11-19T09:08:24;11.20;99.90
21481;DHT22;10902;48.158;8.634;2023-11-19T09:11:10;11.20;99.90
21481;DHT22;10902;48.158;8.634;2023-11-19T09:13:56;11.50;99.90
21481;DHT22;10902;48.158;8.634;2023-11-19T09:16:41;11.60;99.90
21481;DHT22;10902;48.158;8.634;2023-11-19T09:19:27;11.80;99.90
21481;DHT22;10902;48.158;8.634;2023-11-19T09:22:12;11.70;99.90
21481;DHT22;10902;48.158;8.634;2023-11-19T09:25:10;11.70;99.90
21481;DHT22;10902;48.158;8.634;2023-11-19T09:27:56;11.90;99.90
21481;DHT22;10902;48.158;8.634;2023-11-19T09:30:41;12.10;99.90
21481;DHT22;10902;48.158;8.634;2023-11-19T09:33:27;12.00;99.90
21481;DHT22;10902;48.158;8.634;2023-11-19T09:36:13;12.20;99.90
21481;DHT22;10902;48.158;8.634;2023-11-19T09:39:02;12.20;99.90
21481;DHT22;10902;48.158;8.634;2023-11-19T09:41:48;12.20;99.90
21481;DHT22;10902;48.158;8.634;2023-11-19T09:44:35;12.30;99.90
21481;DHT22;10902;48.158;8.634;2023-11-19T09:47:22;12.30;99.90
21481;DHT22;10902;48.158;8.634;2023-11-19T09:50:10;12.30;99.90
21481;DHT22;10902;48.158;8.634;2023-11-19T09:52:55;12.30;99.90
21481;DHT22;10902;48.158;8.634;2023-11-19T09:55:41;12.30;99.90
21481;DHT22;10902;48.158;8.634;2023-11-19T09:58:27;12.40;99.90
21481;DHT22;10902;48.158;8.634;2023-11-19T10:01:14;12.40;99.90
21481;DHT22;10902;48.158;8.634;2023-11-19T10:04:06;12.50;99.90
21481;DHT22;10902;48.158;8.634;2023-11-19T10:06:52;12.40;99.90
21481;DHT22;10902;48.158;8.634;2023-11-19T10:09:38;12.30;99.90
21481;DHT22;10902;48.158;8.634;2023-11-19T10:12:23;12.20;99.90
21481;DHT22;10902;48.158;8.634;2023-11-19T10:15:21;12.20;99.90
21481;DHT22;10902;48.158;8.634;2023-11-19T10:18:14;12.20;99.90
21481;DHT22;10902;48.158;8.634;2023-11-19T10:20:59;12.30;99.90
21481;DHT22;10902;48.158;8.634;2023-11-19T10:23:52;12.50;99.90
21481;DHT22;10902;48.158;8.634;2023-11-19T10:26:50;12.60;99.90
21481;DHT22;10902;48.158;8.634;2023-11-19T10:29:38;12.70;99.90
21481;DHT22;10902;48.158;8.634;2023-11-19T10:32:24;12.60;99.90
21481;DHT22;10902;48.158;8.634;2023-11-19T10:35:12;12.60;99.90
21481;DHT22;10902;48.158;8.634;2023-11-19T10:38:00;12.60;99.90
21481;DHT22;10902;48.158;8.634;2023-11-19T10:40:46;12.50;99.90
21481;DHT22;10902;48.158;8.634;2023-11-19T10:43:44;12.50;99.90
21481;DHT22;10902;48.158;8.634;2023-11-19T10:46:40;12.50;99.90
21481;DHT22;10902;48.158;8.634;2023-11-19T10:49:26;12.40;99.90
21481;DHT22;10902;48.158;8.634;2023-11-19T10:52:12;12.50;99.90
21481;DHT22;10902;48.158;8.634;2023-11-19T10:55:03;12.70;99.90
21481;DHT22;10902;48.158;8.634;2023-11-19T10:57:51;12.80;99.90
21481;DHT22;10902;48.158;8.634;2023-11-19T11:00:45;12.70;99.90
21481;DHT22;10902;48.158;8.634;2023-11-19T11:03:38;13.00;99.90
21481;DHT22;10902;48.158;8.634;2023-11-19T11:06:26;13.10;99.90
21481;DHT22;10902;48.158;8.634;2023-11-19T11:09:13;13.20;99.90
21481;DHT22;10902;48.158;8.634;2023-11-19T11:12:01;13.30;99.90
21481;DHT22;10902;48.158;8.634;2023-11-19T11:14:47;13.20;99.90
21481;DHT22;10902;48.158;8.634;2023-11-19T11:17:33;13.20;99.90
21481;DHT22;10902;48.158;8.634;2023-11-19T11:20:19;13.20;99.90
21481;DHT22;10902;48.158;8.634;2023-11-19T11:33:15;13.50;99.90
21481;DHT22;10902;48.158;8.634;2023-11-19T11:38:58;14.30;99.90
21481;DHT22;10902;48.158;8.634;2023-11-19T11:41:45;14.80;99.90
21481;DHT22;10902;48.158;8.634;2023-11-19T11:45:00;15.30;99.90
21481;DHT22;10902;48.158;8.634;2023-11-19T11:48:11;16.00;99.90
21481;DHT22;10902;48.158;8.634;2023-11-19T11:50:57;16.00;99.90
21481;DHT22;10902;48.158;8.634;2023-11-19T11:53:47;15.90;99.90
21481;DHT22;10902;48.158;8.634;2023-11-19T11:56:33;15.50;99.90
21481;DHT22;10902;48.158;8.634;2023-11-19T11:59:23;15.40;99.90
21481;DHT22;10902;48.158;8.634;2023-11-19T12:02:10;15.80;99.90
21481;DHT22;10902;48.158;8.634;2023-11-19T12:04:56;16.40;99.90
21481;DHT22;10902;48.158;8.634;2023-11-19T12:07:54;16.30;99.90
21481;DHT22;10902;48.158;8.634;2023-11-19T12:10:51;16.10;99.90
21481;DHT22;10902;48.158;8.634;2023-11-19T12:13:53;16.40;99.90
21481;DHT22;10902;48.158;8.634;2023-11-19T12:16:47;17.00;99.90
21481;DHT22;10902;48.158;8.634;2023-11-19T12:19:32;16.60;99.90
21481;DHT22;10902;48.158;8.634;2023-11-19T12:22:18;16.10;99.90
21481;DHT22;10902;48.158;8.634;2023-11-19T12:25:09;15.50;99.90
21481;DHT22;10902;48.158;8.634;2023-11-19T12:27:55;14.90;99.90
21481;DHT22;10902;48.158;8.634;2023-11-19T12:30:40;14.60;99.90
21481;DHT22;10902;48.158;8.634;2023-11-19T12:33:26;14.90;99.90
21481;DHT22;10902;48.158;8.634;2023-11-19T12:36:11;15.40;99.90
21481;DHT22;10902;48.158;8.634;2023-11-19T12:38:57;15.70;99.90
21481;DHT22;10902;48.158;8.634;2023-11-19T12:41:56;15.90;99.90
21481;DHT22;10902;48.158;8.634;2023-11-19T12:44:55;16.10;99.90
21481;DHT22;10902;48.158;8.634;2023-11-19T12:47:44;16.60;99.90
21481;DHT22;10902;48.158;8.634;2023-11-19T12:50:55;16.60;99.90
21481;DHT22;10902;48.158;8.634;2023-11-19T12:53:50;17.00;99.90
21481;DHT22;10902;48.158;8.634;2023-11-19T12:56:36;16.60;99.90
21481;DHT22;10902;48.158;8.634;2023-11-19T12:59:23;15.70;99.90
21481;DHT22;10902;48.158;8.634;2023-11-19T13:02:08;15.40;99.90
21481;DHT22;10902;48.158;8.634;2023-11-19T13:04:54;15.10;99.90
21481;DHT22;10902;48.158;8.634;2023-11-19T13:07:39;14.90;99.90
21481;DHT22;10902;48.158;8.634;2023-11-19T13:10:25;15.40;99.90
21481;DHT22;10902;48.158;8.634;2023-11-19T13:13:11;15.30;99.90
21481;DHT22;10902;48.158;8.634;2023-11-19T13:16:04;15.20;99.90
21481;DHT22;10902;48.158;8.634;2023-11-19T13:18:54;15.80;99.90
21481;DHT22;10902;48.158;8.634;2023-11-19T13:21:40;15.70;99.90
21481;DHT22;10902;48.158;8.634;2023-11-19T13:24:25;15.10;99.90
21481;DHT22;10902;48.158;8.634;2023-11-19T13:27:11;15.20;99.90
21481;DHT22;10902;48.158;8.634;2023-11-19T13:29:58;15.20;99.90
21481;DHT22;10902;48.158;8.634;2023-11-19T13:32:45;15.40;99.90
21481;DHT22;10902;48.158;8.634;2023-11-19T13:35:31;15.30;99.90
21481;DHT22;10902;48.158;8.634;2023-11-19T13:38:17;15.30;99.90
21481;DHT22;10902;48.158;8.634;2023-11-19T13:41:05;15.40;99.90
21481;DHT22;10902;48.158;8.634;2023-11-19T13:43:51;15.30;99.90
21481;DHT22;10902;48.158;8.634;2023-11-19T13:46:37;15.40;99.90
21481;DHT22;10902;48.158;8.634;2023-11-19T13:49:23;15.50;99.90
21481;DHT22;10902;48.158;8.634;2023-11-19T13:52:08;15.10;99.90
21481;DHT22;10902;48.158;8.634;2023-11-19T13:54:54;15.20;99.90
21481;DHT22;10902;48.158;8.634;2023-11-19T13:57:57;15.10;99.90
21481;DHT22;10902;48.158;8.634;2023-11-19T14:00:43;14.90;99.90
21481;DHT22;10902;48.158;8.634;2023-11-19T14:03:28;15.20;99.90
21481;DHT22;10902;48.158;8.634;2023-11-19T14:06:14;15.20;99.90
21481;DHT22;10902;48.158;8.634;2023-11-19T14:09:00;15.20;99.90
21481;DHT22;10902;48.158;8.634;2023-11-19T14:11:45;15.20;99.90
21481;DHT22;10902;48.158;8.634;2023-11-19T14:14:31;15.60;99.90
21481;DHT22;10902;48.158;8.634;2023-11-19T14:17:16;15.40;99.90
21481;DHT22;10902;48.158;8.634;2023-11-19T14:20:09;15.10;99.90
21481;DHT22;10902;48.158;8.634;2023-11-19T14:22:58;15.20;99.90
21481;DHT22;10902;48.158;8.634;2023-11-19T14:25:45;15.50;99.90
21481;DHT22;10902;48.158;8.634;2023-11-19T14:28:30;15.60;99.90
21481;DHT22;10902;48.158;8.634;2023-11-19T14:31:16;15.70;99.90
21481;DHT22;10902;48.158;8.634;2023-11-19T14:34:02;15.60;99.90
21481;DHT22;10902;48.158;8.634;2023-11-19T14:36:48;15.40;99.90
21481;DHT22;10902;48.158;8.634;2023-11-19T14:39:34;15.10;99.90
21481;DHT22;10902;48.158;8.634;2023-11-19T14:42:20;15.10;99.90
21481;DHT22;10902;48.158;8.634;2023-11-19T14:45:06;15.00;99.90
21481;DHT22;10902;48.158;8.634;2023-11-19T14:47:52;14.80;99.90
21481;DHT22;10902;48.158;8.634;2023-11-19T14:50:39;14.80;99.90
21481;DHT22;10902;48.158;8.634;2023-11-19T14:53:25;14.30;99.90
21481;DHT22;10902;48.158;8.634;2023-11-19T14:56:11;14.30;99.90
21481;DHT22;10902;48.158;8.634;2023-11-19T14:58:58;13.90;99.90
21481;DHT22;10902;48.158;8.634;2023-11-19T15:01:47;13.80;99.90
21481;DHT22;10902;48.158;8.634;2023-11-19T15:04:32;13.80;99.90
21481;DHT22;10902;48.158;8.634;2023-11-19T15:07:19;13.90;99.90
21481;DHT22;10902;48.158;8.634;2023-11-19T15:10:05;13.80;99.90
21481;DHT22;10902;48.158;8.634;2023-11-19T15:12:55;13.50;99.90
21481;DHT22;10902;48.158;8.634;2023-11-19T15:15:40;13.30;99.90
21481;DHT22;10902;48.158;8.634;2023-11-19T15:18:26;13.00;99.90
21481;DHT22;10902;48.158;8.634;2023-11-19T15:21:11;12.60;99.90
21481;DHT22;10902;48.158;8.634;2023-11-19T15:23:58;12.30;99.90
21481;DHT22;10902;48.158;8.634;2023-11-19T15:26:44;12.10;99.90
21481;DHT22;10902;48.158;8.634;2023-11-19T15:29:29;11.90;99.90
21481;DHT22;10902;48.158;8.634;2023-11-19T15:32:15;11.70;99.90
21481;DHT22;10902;48.158;8.634;2023-11-19T15:35:01;11.40;99.90
21481;DHT22;10902;48.158;8.634;2023-11-19T15:37:48;11.30;99.90
21481;DHT22;10902;48.158;8.634;2023-11-19T15:40:33;11.10;99.90
21481;DHT22;10902;48.158;8.634;2023-11-19T15:43:19;11.10;99.90
21481;DHT22;10902;48.158;8.634;2023-11-19T15:46:07;11.00;99.90
21481;DHT22;10902;48.158;8.634;2023-11-19T15:48:53;10.90;99.90
21481;DHT22;10902;48.158;8.634;2023-11-19T15:51:38;10.80;99.90
21481;DHT22;10902;48.158;8.634;2023-11-19T15:54:24;10.60;99.90
21481;DHT22;10902;48.158;8.634;2023-11-19T15:57:09;10.50;99.90
21481;DHT22;10902;48.158;8.634;2023-11-19T15:59:55;10.50;99.90
21481;DHT22;10902;48.158;8.634;2023-11-19T16:02:40;10.40;99.90
21481;DHT22;10902;48.158;8.634;2023-11-19T16:05:34;10.40;99.90
21481;DHT22;10902;48.158;8.634;2023-11-19T16:08:20;10.40;99.90
21481;DHT22;10902;48.158;8.634;2023-11-19T16:11:11;10.40;99.90
21481;DHT22;10902;48.158;8.634;2023-11-19T16:13:58;10.40;99.90
21481;DHT22;10902;48.158;8.634;2023-11-19T16:16:43;10.20;99.90
21481;DHT22;10902;48.158;8.634;2023-11-19T16:19:29;10.20;99.90
21481;DHT22;10902;48.158;8.634;2023-11-19T16:22:15;10.20;99.90
21481;DHT22;10902;48.158;8.634;2023-11-19T16:25:01;10.10;99.90
21481;DHT22;10902;48.158;8.634;2023-11-19T16:27:47;10.20;99.90
21481;DHT22;10902;48.158;8.634;2023-11-19T16:30:33;10.10;99.90
21481;DHT22;10902;48.158;8.634;2023-11-19T16:33:19;10.10;99.90
21481;DHT22;10902;48.158;8.634;2023-11-19T16:36:05;10.20;99.90
21481;DHT22;10902;48.158;8.634;2023-11-19T16:38:51;10.10;99.90
21481;DHT22;10902;48.158;8.634;2023-11-19T16:41:37;10.00;99.90
21481;DHT22;10902;48.158;8.634;2023-11-19T16:44:23;10.10;99.90
21481;DHT22;10902;48.158;8.634;2023-11-19T16:47:09;10.10;99.90
21481;DHT22;10902;48.158;8.634;2023-11-19T16:49:54;10.00;99.90
21481;DHT22;10902;48.158;8.634;2023-11-19T16:52:40;9.80;99.90
21481;DHT22;10902;48.158;8.634;2023-11-19T16:55:26;9.80;99.90
21481;DHT22;10902;48.158;8.634;2023-11-19T16:58:12;9.70;99.90
21481;DHT22;10902;48.158;8.634;2023-11-19T17:00:58;9.70;99.90
21481;DHT22;10902;48.158;8.634;2023-11-19T17:03:49;9.70;99.90
21481;DHT22;10902;48.158;8.634;2023-11-19T17:06:37;9.90;99.90
21481;DHT22;10902;48.158;8.634;2023-11-19T17:09:23;9.90;99.90
21481;DHT22;10902;48.158;8.634;2023-11-19T17:12:09;9.80;99.90
21481;DHT22;10902;48.158;8.634;2023-11-19T17:14:54;9.70;99.90
21481;DHT22;10902;48.158;8.634;2023-11-19T17:17:48;9.80;99.90
21481;DHT22;10902;48.158;8.634;2023-11-19T17:20:34;9.70;99.90
21481;DHT22;10902;48.158;8.634;2023-11-19T17:23:22;9.60;99.90
21481;DHT22;10902;48.158;8.634;2023-11-19T17:26:23;9.50;99.90
21481;DHT22;10902;48.158;8.634;2023-11-19T17:29:08;9.40;99.90
21481;DHT22;10902;48.158;8.634;2023-11-19T17:31:54;9.40;99.90
21481;DHT22;10902;48.158;8.634;2023-11-19T17:34:39;9.40;99.90
21481;DHT22;10902;48.158;8.634;2023-11-19T17:37:25;9.40;99.90
21481;DHT22;10902;48.158;8.634;2023-11-19T17:40:11;9.40;99.90
21481;DHT22;10902;48.158;8.634;2023-11-19T17:42:59;9.30;99.90
21481;DHT22;10902;48.158;8.634;2023-11-19T17:45:44;9.40;99.90
21481;DHT22;10902;48.158;8.634;2023-11-19T17:48:30;9.60;99.90
21481;DHT22;10902;48.158;8.634;2023-11-19T17:51:16;9.50;99.90
21481;DHT22;10902;48.158;8.634;2023-11-19T17:54:04;9.50;99.90
21481;DHT22;10902;48.158;8.634;2023-11-19T17:56:50;9.40;99.90
21481;DHT22;10902;48.158;8.634;2023-11-19T17:59:36;9.40;99.90